Airfield :
LOGIN :

Register | Disclaimer

   EN    FR    IT 

 










Legend :    VFR   Marginal VFR   IFR   Intensive IFR   Very Intensive IFR
Visi :
Ceiling :
>= 8 km
>= 3000ft
5 to 8 km
1000 to 3000 ft
1500m to 5 km
500 to 1000 ft
800 to 1500m
200 to 500 ft
< 800m
< 200 ft
Symbols :   Thunderstorms  Fog  Heavy snow  Heavy precipitations  Wind > 20 kt
SIGMETs :     Misc.  Thunderstorms  Icing  Turbulence  Mountain Waves  Volcanic Ashes






- Airport Elevation : 302 ft
- IATA code : CGN


EDDK - Cologne Bonn

CURRENT METAR :
  • 020320Z AUTO 01004KT 9999 OVC015 03/01 Q1023 NOSIG

EXPIRED METARs :
  • 020250Z AUTO 34003KT 310V010 9999 OVC015 03/00 Q1024 NOSIG
  • 020220Z AUTO 35003KT 300V010 9999 OVC016 03/01 Q1024 NOSIG
  • 020150Z AUTO 34003KT 310V010 9999 OVC016 03/00 Q1024 NOSIG
  • 020120Z AUTO 04003KT 360V140 9999 OVC015 03/00 Q1024 NOSIG
  • 020050Z AUTO 02005KT 9999 OVC015 03/00 Q1024 NOSIG

TAF TAF EDDK
Valid from the 02 at 00:00 until the 03 at 06:00 UTC


012300Z 0200/0306 03006KT 9999 BKN015
PROB30
TEMPO 0207/0217 4000 -DZRA BR BKN012
PROB30
TEMPO 0217/0221 4000 -RASN



MET'MAP, your aeronautical weather chart ! - Copyright ORBIFLY December 2007 - Disclaimer

ORBIFLY MET'MAP TEAM :

Programming & Development : Alexandra Zaïnal
Original concept : Baudouin d'Aumeries
Technical & hardware support : Manuel Goepfert
Assistance : Marc-Olivier Méhu




SOURCES & CREDITS :

   NOAA